VTBU

U-Tapao International Airport

Rayong, Thailand
TAF VTBU 260500Z 2606/2706 16010KT 9999 FEW020 TEMPO 2606/2611 FEW020CB BECMG 2611/2613 16006KT 8000
Issued Valid From Valid To
Apr-26 @ 05:00 UTC
(60 minutes ago)
Apr-26 @ 06:00 UTC
(a few seconds ago)
Apr-27 @ 06:00 UTC
(in 24 hours)
Apr-26 @ 06:00 to Apr-26 @ 11:00
TAF VTBU 260500Z 2606/2706 16010KT 9999 FEW020
Wind Visibility Clouds
160° at 10 knots 10,000+ meters
  • Few at 2,000' AGL
Temporary Apr-26 @ 06:00 to Apr-26 @ 11:00
TEMPO 2606/2611 FEW020CB
Clouds
  • Few at 2,000' AGL
Becoming Apr-26 @ 11:00 to Apr-27 @ 06:00
BECMG 2611/2613 16006KT 8000
Wind Visibility Clouds
160° at 6 knots 7,998 meters
  • Few at 2,000' AGL
TAF VTBU 260500Z 2606/2706 16010KT 9999 FEW020 TEMPO 2606/2611 FEW020CB BECMG 2611/2613 16006KT 8000
Issued Apr-26 @ 05:00 UTC
(60 minutes ago)
Valid From Apr-26 @ 06:00 UTC
(a few seconds ago)
Valid To Apr-27 @ 06:00 UTC
(in 24 hours)
Apr-26 @ 06:00 - Apr-26 @ 11:00
Wind Visibility
160° at 10 knots 10,000+ meters
Clouds
  • Few at 2,000' AGL
Temporary Apr-26 @ 06:00 - Apr-26 @ 11:00
Clouds
  • Few at 2,000' AGL
Becoming Apr-26 @ 11:00 - Apr-27 @ 06:00
Wind Visibility
160° at 6 knots 7,998 meters
Clouds
  • Few at 2,000' AGL